sensor_id;sensor_type;location;lat;lon;timestamp;P1;durP1;ratioP1;P2;durP2;ratioP2
70052;SDS011;57398;52.032;4.376;2022-08-01T00:00:17;13.07;;;4.50;;
70052;SDS011;57398;52.032;4.376;2022-08-01T00:02:44;12.00;;;4.10;;
70052;SDS011;57398;52.032;4.376;2022-08-01T00:05:12;10.57;;;4.00;;
70052;SDS011;57398;52.032;4.376;2022-08-01T00:07:39;10.88;;;4.30;;
70052;SDS011;57398;52.032;4.376;2022-08-01T00:10:09;11.60;;;4.13;;
70052;SDS011;57398;52.032;4.376;2022-08-01T00:12:37;10.63;;;4.60;;
70052;SDS011;57398;52.032;4.376;2022-08-01T00:15:05;11.82;;;4.00;;
70052;SDS011;57398;52.032;4.376;2022-08-01T00:17:33;11.73;;;3.83;;
70052;SDS011;57398;52.032;4.376;2022-08-01T00:20:02;12.07;;;4.60;;
70052;SDS011;57398;52.032;4.376;2022-08-01T00:22:30;11.45;;;3.70;;
70052;SDS011;57398;52.032;4.376;2022-08-01T00:24:57;10.00;;;3.63;;
70052;SDS011;57398;52.032;4.376;2022-08-01T00:27:26;9.48;;;3.75;;
70052;SDS011;57398;52.032;4.376;2022-08-01T00:29:54;9.53;;;3.30;;
70052;SDS011;57398;52.032;4.376;2022-08-01T00:32:39;6.90;;;2.33;;
70052;SDS011;57398;52.032;4.376;2022-08-01T00:35:07;5.85;;;1.90;;
70052;SDS011;57398;52.032;4.376;2022-08-01T00:37:35;5.82;;;2.13;;
70052;SDS011;57398;52.032;4.376;2022-08-01T00:40:02;5.60;;;1.75;;
70052;SDS011;57398;52.032;4.376;2022-08-01T00:42:31;4.63;;;1.50;;
70052;SDS011;57398;52.032;4.376;2022-08-01T00:44:59;3.58;;;1.20;;
70052;SDS011;57398;52.032;4.376;2022-08-01T00:47:26;4.32;;;1.42;;
70052;SDS011;57398;52.032;4.376;2022-08-01T00:49:54;4.72;;;1.27;;
70052;SDS011;57398;52.032;4.376;2022-08-01T00:52:21;4.05;;;1.30;;
70052;SDS011;57398;52.032;4.376;2022-08-01T00:54:49;4.70;;;1.60;;
70052;SDS011;57398;52.032;4.376;2022-08-01T00:57:17;4.40;;;1.60;;
70052;SDS011;57398;52.032;4.376;2022-08-01T01:00:06;5.30;;;1.95;;
70052;SDS011;57398;52.032;4.376;2022-08-01T01:02:35;7.43;;;1.88;;
70052;SDS011;57398;52.032;4.376;2022-08-01T01:05:02;5.82;;;2.20;;
70052;SDS011;57398;52.032;4.376;2022-08-01T01:07:32;7.73;;;2.60;;
70052;SDS011;57398;52.032;4.376;2022-08-01T01:10:15;6.68;;;2.55;;
70052;SDS011;57398;52.032;4.376;2022-08-01T01:12:47;5.95;;;2.20;;
70052;SDS011;57398;52.032;4.376;2022-08-01T01:15:21;6.13;;;2.22;;
70052;SDS011;57398;52.032;4.376;2022-08-01T01:17:51;5.82;;;2.17;;
70052;SDS011;57398;52.032;4.376;2022-08-01T01:20:21;6.23;;;2.50;;
70052;SDS011;57398;52.032;4.376;2022-08-01T01:22:53;5.93;;;2.20;;
70052;SDS011;57398;52.032;4.376;2022-08-01T01:25:27;5.75;;;2.58;;
70052;SDS011;57398;52.032;4.376;2022-08-01T01:28:02;7.22;;;2.60;;
70052;SDS011;57398;52.032;4.376;2022-08-01T01:30:32;6.30;;;2.80;;
70052;SDS011;57398;52.032;4.376;2022-08-01T01:33:01;9.00;;;2.97;;
70052;SDS011;57398;52.032;4.376;2022-08-01T01:35:30;7.60;;;3.20;;
70052;SDS011;57398;52.032;4.376;2022-08-01T01:38:00;9.48;;;3.10;;
70052;SDS011;57398;52.032;4.376;2022-08-01T01:40:29;8.25;;;3.40;;
70052;SDS011;57398;52.032;4.376;2022-08-01T01:42:57;7.05;;;3.53;;
70052;SDS011;57398;52.032;4.376;2022-08-01T01:45:25;6.73;;;3.37;;
70052;SDS011;57398;52.032;4.376;2022-08-01T01:47:54;9.27;;;3.80;;
70052;SDS011;57398;52.032;4.376;2022-08-01T01:50:23;7.15;;;3.58;;
70052;SDS011;57398;52.032;4.376;2022-08-01T01:52:51;8.25;;;3.63;;
70052;SDS011;57398;52.032;4.376;2022-08-01T01:55:20;8.25;;;3.88;;
70052;SDS011;57398;52.032;4.376;2022-08-01T01:57:49;8.73;;;4.00;;
70052;SDS011;57398;52.032;4.376;2022-08-01T02:00:17;11.67;;;4.30;;
70052;SDS011;57398;52.032;4.376;2022-08-01T02:02:45;10.32;;;3.88;;
70052;SDS011;57398;52.032;4.376;2022-08-01T02:05:14;10.10;;;4.10;;
70052;SDS011;57398;52.032;4.376;2022-08-01T02:07:42;7.80;;;3.63;;
70052;SDS011;57398;52.032;4.376;2022-08-01T02:10:14;7.60;;;4.03;;
70052;SDS011;57398;52.032;4.376;2022-08-01T02:12:44;7.50;;;3.47;;
70052;SDS011;57398;52.032;4.376;2022-08-01T02:15:13;8.30;;;3.95;;
70052;SDS011;57398;52.032;4.376;2022-08-01T02:17:41;7.63;;;3.83;;
70052;SDS011;57398;52.032;4.376;2022-08-01T02:20:10;8.15;;;3.42;;
70052;SDS011;57398;52.032;4.376;2022-08-01T02:22:42;8.38;;;3.20;;
70052;SDS011;57398;52.032;4.376;2022-08-01T02:25:10;7.67;;;3.30;;
70052;SDS011;57398;52.032;4.376;2022-08-01T02:27:39;7.53;;;2.97;;
70052;SDS011;57398;52.032;4.376;2022-08-01T02:30:08;6.57;;;2.42;;
70052;SDS011;57398;52.032;4.376;2022-08-01T02:32:37;4.18;;;1.90;;
70052;SDS011;57398;52.032;4.376;2022-08-01T02:35:06;6.18;;;2.10;;
70052;SDS011;57398;52.032;4.376;2022-08-01T02:37:34;4.10;;;1.70;;
70052;SDS011;57398;52.032;4.376;2022-08-01T02:40:11;4.95;;;1.60;;
70052;SDS011;57398;52.032;4.376;2022-08-01T02:42:40;4.65;;;1.50;;
70052;SDS011;57398;52.032;4.376;2022-08-01T02:45:09;4.22;;;1.60;;
70052;SDS011;57398;52.032;4.376;2022-08-01T02:47:37;3.88;;;1.15;;
70052;SDS011;57398;52.032;4.376;2022-08-01T02:50:05;6.17;;;1.97;;
70052;SDS011;57398;52.032;4.376;2022-08-01T02:52:34;5.13;;;1.30;;
70052;SDS011;57398;52.032;4.376;2022-08-01T02:55:02;4.47;;;1.20;;
70052;SDS011;57398;52.032;4.376;2022-08-01T02:57:31;4.07;;;1.00;;
70052;SDS011;57398;52.032;4.376;2022-08-01T03:00:19;6.45;;;1.48;;
70052;SDS011;57398;52.032;4.376;2022-08-01T03:02:50;4.07;;;1.40;;
70052;SDS011;57398;52.032;4.376;2022-08-01T03:05:20;3.17;;;1.08;;
70052;SDS011;57398;52.032;4.376;2022-08-01T03:07:47;4.20;;;1.10;;
70052;SDS011;57398;52.032;4.376;2022-08-01T03:10:15;3.60;;;1.10;;
70052;SDS011;57398;52.032;4.376;2022-08-01T03:12:45;3.55;;;1.10;;
70052;SDS011;57398;52.032;4.376;2022-08-01T03:15:13;3.97;;;1.10;;
70052;SDS011;57398;52.032;4.376;2022-08-01T03:17:43;4.35;;;1.20;;
70052;SDS011;57398;52.032;4.376;2022-08-01T03:20:12;5.10;;;1.60;;
70052;SDS011;57398;52.032;4.376;2022-08-01T03:22:41;4.07;;;1.58;;
70052;SDS011;57398;52.032;4.376;2022-08-01T03:25:09;4.60;;;1.58;;
70052;SDS011;57398;52.032;4.376;2022-08-01T03:27:37;5.43;;;1.57;;
70052;SDS011;57398;52.032;4.376;2022-08-01T03:30:08;5.03;;;1.88;;
70052;SDS011;57398;52.032;4.376;2022-08-01T03:32:36;6.10;;;1.50;;
70052;SDS011;57398;52.032;4.376;2022-08-01T03:35:04;4.97;;;1.60;;
70052;SDS011;57398;52.032;4.376;2022-08-01T03:37:34;5.40;;;2.03;;
70052;SDS011;57398;52.032;4.376;2022-08-01T03:40:02;6.50;;;1.90;;
70052;SDS011;57398;52.032;4.376;2022-08-01T03:42:32;4.85;;;2.00;;
70052;SDS011;57398;52.032;4.376;2022-08-01T03:45:02;6.13;;;1.80;;
70052;SDS011;57398;52.032;4.376;2022-08-01T03:47:32;5.13;;;1.75;;
70052;SDS011;57398;52.032;4.376;2022-08-01T03:50:10;5.68;;;2.08;;
70052;SDS011;57398;52.032;4.376;2022-08-01T03:52:39;5.53;;;1.80;;
70052;SDS011;57398;52.032;4.376;2022-08-01T03:55:07;5.35;;;2.25;;
70052;SDS011;57398;52.032;4.376;2022-08-01T03:57:34;6.35;;;2.00;;
70052;SDS011;57398;52.032;4.376;2022-08-01T04:00:03;5.55;;;1.95;;
70052;SDS011;57398;52.032;4.376;2022-08-01T04:02:33;5.45;;;2.00;;
70052;SDS011;57398;52.032;4.376;2022-08-01T04:05:01;5.37;;;2.00;;
70052;SDS011;57398;52.032;4.376;2022-08-01T04:07:30;4.50;;;1.98;;
70052;SDS011;57398;52.032;4.376;2022-08-01T04:09:57;5.82;;;2.03;;
70052;SDS011;57398;52.032;4.376;2022-08-01T04:12:25;5.65;;;1.90;;
70052;SDS011;57398;52.032;4.376;2022-08-01T04:14:52;5.60;;;1.70;;
70052;SDS011;57398;52.032;4.376;2022-08-01T04:17:19;4.60;;;1.83;;
70052;SDS011;57398;52.032;4.376;2022-08-01T04:19:49;5.68;;;2.20;;
70052;SDS011;57398;52.032;4.376;2022-08-01T04:22:17;4.40;;;1.70;;
70052;SDS011;57398;52.032;4.376;2022-08-01T04:24:46;4.93;;;1.80;;
70052;SDS011;57398;52.032;4.376;2022-08-01T04:27:22;4.90;;;1.90;;
70052;SDS011;57398;52.032;4.376;2022-08-01T04:30:11;4.93;;;1.77;;
70052;SDS011;57398;52.032;4.376;2022-08-01T04:32:46;6.32;;;1.85;;
70052;SDS011;57398;52.032;4.376;2022-08-01T04:35:17;6.05;;;1.55;;
70052;SDS011;57398;52.032;4.376;2022-08-01T04:38:06;4.60;;;1.60;;
70052;SDS011;57398;52.032;4.376;2022-08-01T04:40:34;5.60;;;1.80;;
70052;SDS011;57398;52.032;4.376;2022-08-01T04:43:03;5.43;;;1.90;;
70052;SDS011;57398;52.032;4.376;2022-08-01T04:45:31;5.72;;;2.00;;
70052;SDS011;57398;52.032;4.376;2022-08-01T04:47:59;4.55;;;1.80;;
70052;SDS011;57398;52.032;4.376;2022-08-01T04:50:28;6.38;;;1.92;;
70052;SDS011;57398;52.032;4.376;2022-08-01T04:52:57;5.50;;;1.90;;
70052;SDS011;57398;52.032;4.376;2022-08-01T04:55:25;5.27;;;1.50;;
70052;SDS011;57398;52.032;4.376;2022-08-01T04:57:52;4.95;;;1.80;;
70052;SDS011;57398;52.032;4.376;2022-08-01T05:00:20;4.43;;;1.63;;
70052;SDS011;57398;52.032;4.376;2022-08-01T05:02:47;5.50;;;1.77;;
70052;SDS011;57398;52.032;4.376;2022-08-01T05:05:16;4.45;;;1.80;;
70052;SDS011;57398;52.032;4.376;2022-08-01T05:07:45;5.40;;;1.63;;
70052;SDS011;57398;52.032;4.376;2022-08-01T05:10:12;7.47;;;1.90;;
70052;SDS011;57398;52.032;4.376;2022-08-01T05:12:40;5.38;;;1.98;;
70052;SDS011;57398;52.032;4.376;2022-08-01T05:15:08;5.55;;;2.10;;
70052;SDS011;57398;52.032;4.376;2022-08-01T05:17:40;5.85;;;1.90;;
70052;SDS011;57398;52.032;4.376;2022-08-01T05:20:09;5.30;;;1.90;;
70052;SDS011;57398;52.032;4.376;2022-08-01T05:22:37;4.60;;;1.90;;
70052;SDS011;57398;52.032;4.376;2022-08-01T05:25:06;4.95;;;1.80;;
70052;SDS011;57398;52.032;4.376;2022-08-01T05:27:34;5.13;;;1.83;;
70052;SDS011;57398;52.032;4.376;2022-08-01T05:30:06;4.75;;;1.67;;
70052;SDS011;57398;52.032;4.376;2022-08-01T05:32:33;4.97;;;1.77;;
70052;SDS011;57398;52.032;4.376;2022-08-01T05:35:01;5.90;;;1.98;;
70052;SDS011;57398;52.032;4.376;2022-08-01T05:37:29;5.90;;;2.20;;
70052;SDS011;57398;52.032;4.376;2022-08-01T05:39:57;5.57;;;2.00;;
70052;SDS011;57398;52.032;4.376;2022-08-01T05:42:25;4.55;;;1.80;;
70052;SDS011;57398;52.032;4.376;2022-08-01T05:44:53;4.80;;;1.98;;
70052;SDS011;57398;52.032;4.376;2022-08-01T05:47:20;4.43;;;2.10;;
70052;SDS011;57398;52.032;4.376;2022-08-01T05:49:48;4.18;;;1.98;;
70052;SDS011;57398;52.032;4.376;2022-08-01T05:52:15;6.25;;;2.47;;
70052;SDS011;57398;52.032;4.376;2022-08-01T05:54:43;5.55;;;2.38;;
70052;SDS011;57398;52.032;4.376;2022-08-01T05:57:10;6.18;;;2.60;;
70052;SDS011;57398;52.032;4.376;2022-08-01T05:59:41;6.67;;;2.70;;
70052;SDS011;57398;52.032;4.376;2022-08-01T06:02:08;6.30;;;2.28;;
70052;SDS011;57398;52.032;4.376;2022-08-01T06:04:36;6.32;;;2.28;;
70052;SDS011;57398;52.032;4.376;2022-08-01T06:07:04;5.63;;;2.60;;
70052;SDS011;57398;52.032;4.376;2022-08-01T06:09:31;5.65;;;2.25;;
70052;SDS011;57398;52.032;4.376;2022-08-01T06:11:59;5.73;;;2.17;;
70052;SDS011;57398;52.032;4.376;2022-08-01T06:14:26;5.38;;;2.40;;
70052;SDS011;57398;52.032;4.376;2022-08-01T06:16:55;6.15;;;2.97;;
70052;SDS011;57398;52.032;4.376;2022-08-01T06:19:23;6.20;;;2.80;;
70052;SDS011;57398;52.032;4.376;2022-08-01T06:21:52;6.07;;;2.65;;
70052;SDS011;57398;52.032;4.376;2022-08-01T06:24:19;6.43;;;3.27;;
70052;SDS011;57398;52.032;4.376;2022-08-01T06:26:49;7.97;;;3.15;;
70052;SDS011;57398;52.032;4.376;2022-08-01T06:29:16;6.25;;;3.08;;
70052;SDS011;57398;52.032;4.376;2022-08-01T06:31:44;6.57;;;3.28;;
70052;SDS011;57398;52.032;4.376;2022-08-01T06:34:12;7.50;;;3.15;;
70052;SDS011;57398;52.032;4.376;2022-08-01T06:36:41;9.27;;;3.70;;
70052;SDS011;57398;52.032;4.376;2022-08-01T06:39:08;8.23;;;4.15;;
70052;SDS011;57398;52.032;4.376;2022-08-01T06:41:36;8.93;;;4.75;;
70052;SDS011;57398;52.032;4.376;2022-08-01T06:44:03;10.88;;;5.13;;
70052;SDS011;57398;52.032;4.376;2022-08-01T06:46:31;12.20;;;5.60;;
70052;SDS011;57398;52.032;4.376;2022-08-01T06:49:01;11.23;;;5.27;;
70052;SDS011;57398;52.032;4.376;2022-08-01T06:51:30;12.38;;;5.38;;
70052;SDS011;57398;52.032;4.376;2022-08-01T06:53:57;11.52;;;5.55;;
70052;SDS011;57398;52.032;4.376;2022-08-01T06:56:25;11.65;;;5.82;;
70052;SDS011;57398;52.032;4.376;2022-08-01T06:58:52;12.18;;;5.55;;
70052;SDS011;57398;52.032;4.376;2022-08-01T07:01:22;14.10;;;6.30;;
70052;SDS011;57398;52.032;4.376;2022-08-01T07:03:50;13.13;;;6.55;;
70052;SDS011;57398;52.032;4.376;2022-08-01T07:06:20;15.88;;;6.75;;
70052;SDS011;57398;52.032;4.376;2022-08-01T07:08:49;14.60;;;6.53;;
70052;SDS011;57398;52.032;4.376;2022-08-01T07:11:17;14.52;;;6.50;;
70052;SDS011;57398;52.032;4.376;2022-08-01T07:13:44;14.10;;;6.90;;
70052;SDS011;57398;52.032;4.376;2022-08-01T07:16:12;14.48;;;7.13;;
70052;SDS011;57398;52.032;4.376;2022-08-01T07:18:40;13.57;;;7.22;;
70052;SDS011;57398;52.032;4.376;2022-08-01T07:21:07;15.57;;;7.35;;
70052;SDS011;57398;52.032;4.376;2022-08-01T07:23:56;14.25;;;7.80;;
70052;SDS011;57398;52.032;4.376;2022-08-01T07:26:25;17.43;;;7.60;;
70052;SDS011;57398;52.032;4.376;2022-08-01T07:28:53;16.13;;;7.50;;
70052;SDS011;57398;52.032;4.376;2022-08-01T07:31:21;16.50;;;7.22;;
70052;SDS011;57398;52.032;4.376;2022-08-01T07:33:49;16.33;;;7.13;;
70052;SDS011;57398;52.032;4.376;2022-08-01T07:36:16;13.80;;;6.93;;
70052;SDS011;57398;52.032;4.376;2022-08-01T07:38:44;14.70;;;6.80;;
70052;SDS011;57398;52.032;4.376;2022-08-01T07:41:13;14.38;;;7.00;;
70052;SDS011;57398;52.032;4.376;2022-08-01T07:43:41;15.27;;;6.80;;
70052;SDS011;57398;52.032;4.376;2022-08-01T07:46:21;14.68;;;6.22;;
70052;SDS011;57398;52.032;4.376;2022-08-01T07:48:49;11.93;;;5.97;;
70052;SDS011;57398;52.032;4.376;2022-08-01T07:51:16;12.37;;;5.70;;
70052;SDS011;57398;52.032;4.376;2022-08-01T07:53:44;12.57;;;5.25;;
70052;SDS011;57398;52.032;4.376;2022-08-01T07:56:13;10.65;;;4.75;;
70052;SDS011;57398;52.032;4.376;2022-08-01T07:58:40;8.05;;;4.00;;
70052;SDS011;57398;52.032;4.376;2022-08-01T08:01:08;9.88;;;4.18;;
70052;SDS011;57398;52.032;4.376;2022-08-01T08:03:35;8.57;;;3.57;;
70052;SDS011;57398;52.032;4.376;2022-08-01T08:06:03;8.20;;;3.50;;
70052;SDS011;57398;52.032;4.376;2022-08-01T08:08:31;10.75;;;3.60;;
70052;SDS011;57398;52.032;4.376;2022-08-01T08:11:00;8.48;;;3.50;;
70052;SDS011;57398;52.032;4.376;2022-08-01T08:13:29;10.00;;;3.25;;
70052;SDS011;57398;52.032;4.376;2022-08-01T08:15:57;8.17;;;3.07;;
70052;SDS011;57398;52.032;4.376;2022-08-01T08:18:25;7.63;;;3.42;;
70052;SDS011;57398;52.032;4.376;2022-08-01T08:20:53;8.13;;;3.30;;
70052;SDS011;57398;52.032;4.376;2022-08-01T08:23:20;6.25;;;3.40;;
70052;SDS011;57398;52.032;4.376;2022-08-01T08:26:09;10.10;;;3.03;;
70052;SDS011;57398;52.032;4.376;2022-08-01T08:28:38;7.45;;;3.25;;
70052;SDS011;57398;52.032;4.376;2022-08-01T08:31:06;8.63;;;2.80;;
70052;SDS011;57398;52.032;4.376;2022-08-01T08:33:54;7.90;;;2.70;;
70052;SDS011;57398;52.032;4.376;2022-08-01T08:36:21;8.88;;;2.90;;
70052;SDS011;57398;52.032;4.376;2022-08-01T08:38:56;6.32;;;2.30;;
70052;SDS011;57398;52.032;4.376;2022-08-01T08:41:26;5.45;;;2.60;;
70052;SDS011;57398;52.032;4.376;2022-08-01T08:44:05;5.73;;;2.30;;
70052;SDS011;57398;52.032;4.376;2022-08-01T08:46:38;7.70;;;2.60;;
70052;SDS011;57398;52.032;4.376;2022-08-01T08:49:07;7.18;;;2.17;;
70052;SDS011;57398;52.032;4.376;2022-08-01T08:51:37;5.45;;;2.28;;
70052;SDS011;57398;52.032;4.376;2022-08-01T08:54:05;6.97;;;2.38;;
70052;SDS011;57398;52.032;4.376;2022-08-01T08:56:33;5.33;;;2.10;;
70052;SDS011;57398;52.032;4.376;2022-08-01T08:59:02;7.70;;;2.70;;
70052;SDS011;57398;52.032;4.376;2022-08-01T09:01:31;7.45;;;2.22;;
70052;SDS011;57398;52.032;4.376;2022-08-01T09:04:01;6.68;;;2.53;;
70052;SDS011;57398;52.032;4.376;2022-08-01T09:06:28;6.30;;;1.85;;
70052;SDS011;57398;52.032;4.376;2022-08-01T09:08:56;6.60;;;1.90;;
70052;SDS011;57398;52.032;4.376;2022-08-01T09:11:24;6.90;;;2.08;;
70052;SDS011;57398;52.032;4.376;2022-08-01T09:14:01;7.97;;;1.70;;
70052;SDS011;57398;52.032;4.376;2022-08-01T09:16:29;6.30;;;1.80;;
70052;SDS011;57398;52.032;4.376;2022-08-01T09:19:07;6.97;;;2.10;;
70052;SDS011;57398;52.032;4.376;2022-08-01T09:21:55;6.60;;;1.80;;
70052;SDS011;57398;52.032;4.376;2022-08-01T09:24:24;6.07;;;2.38;;
70052;SDS011;57398;52.032;4.376;2022-08-01T09:26:56;5.72;;;1.95;;
70052;SDS011;57398;52.032;4.376;2022-08-01T09:29:25;5.50;;;1.95;;
70052;SDS011;57398;52.032;4.376;2022-08-01T09:32:04;7.30;;;1.80;;
70052;SDS011;57398;52.032;4.376;2022-08-01T09:34:34;7.43;;;1.80;;
70052;SDS011;57398;52.032;4.376;2022-08-01T09:37:02;6.18;;;1.80;;
70052;SDS011;57398;52.032;4.376;2022-08-01T09:39:33;7.80;;;1.70;;
70052;SDS011;57398;52.032;4.376;2022-08-01T09:42:18;6.28;;;1.63;;
70052;SDS011;57398;52.032;4.376;2022-08-01T09:44:45;6.05;;;1.50;;
70052;SDS011;57398;52.032;4.376;2022-08-01T09:47:20;7.38;;;1.80;;
70052;SDS011;57398;52.032;4.376;2022-08-01T09:49:54;6.67;;;1.87;;
70052;SDS011;57398;52.032;4.376;2022-08-01T09:52:25;5.68;;;1.70;;
70052;SDS011;57398;52.032;4.376;2022-08-01T09:54:55;6.88;;;1.80;;
70052;SDS011;57398;52.032;4.376;2022-08-01T09:57:23;5.20;;;1.83;;
70052;SDS011;57398;52.032;4.376;2022-08-01T09:59:51;4.95;;;1.70;;
70052;SDS011;57398;52.032;4.376;2022-08-01T10:02:29;6.17;;;2.10;;
70052;SDS011;57398;52.032;4.376;2022-08-01T10:04:58;8.27;;;2.47;;
70052;SDS011;57398;52.032;4.376;2022-08-01T10:07:32;7.03;;;2.22;;
70052;SDS011;57398;52.032;4.376;2022-08-01T10:10:09;6.25;;;2.50;;
70052;SDS011;57398;52.032;4.376;2022-08-01T10:12:37;7.10;;;2.70;;
70052;SDS011;57398;52.032;4.376;2022-08-01T10:15:10;6.87;;;2.53;;
70052;SDS011;57398;52.032;4.376;2022-08-01T10:17:39;8.95;;;3.05;;
70052;SDS011;57398;52.032;4.376;2022-08-01T10:20:18;9.07;;;2.78;;
70052;SDS011;57398;52.032;4.376;2022-08-01T10:22:58;9.85;;;2.72;;
70052;SDS011;57398;52.032;4.376;2022-08-01T10:25:33;8.57;;;2.67;;
70052;SDS011;57398;52.032;4.376;2022-08-01T10:28:13;7.70;;;2.77;;
70052;SDS011;57398;52.032;4.376;2022-08-01T10:30:47;6.57;;;2.50;;
70052;SDS011;57398;52.032;4.376;2022-08-01T10:33:15;6.60;;;2.40;;
70052;SDS011;57398;52.032;4.376;2022-08-01T10:36:04;7.40;;;2.30;;
70052;SDS011;57398;52.032;4.376;2022-08-01T10:38:34;8.40;;;2.20;;
70052;SDS011;57398;52.032;4.376;2022-08-01T10:41:03;11.27;;;3.00;;
70052;SDS011;57398;52.032;4.376;2022-08-01T10:43:32;6.53;;;3.30;;
70052;SDS011;57398;52.032;4.376;2022-08-01T10:46:00;6.70;;;3.10;;
70052;SDS011;57398;52.032;4.376;2022-08-01T10:48:29;8.15;;;3.28;;
70052;SDS011;57398;52.032;4.376;2022-08-01T10:51:02;7.30;;;2.83;;
70052;SDS011;57398;52.032;4.376;2022-08-01T10:53:48;9.40;;;3.97;;
70052;SDS011;57398;52.032;4.376;2022-08-01T10:56:19;7.82;;;2.58;;
70052;SDS011;57398;52.032;4.376;2022-08-01T10:58:55;6.28;;;2.22;;
70052;SDS011;57398;52.032;4.376;2022-08-01T11:01:33;7.18;;;1.90;;
70052;SDS011;57398;52.032;4.376;2022-08-01T11:04:04;6.85;;;2.40;;
70052;SDS011;57398;52.032;4.376;2022-08-01T11:06:42;5.47;;;1.80;;
70052;SDS011;57398;52.032;4.376;2022-08-01T11:09:20;6.50;;;2.25;;
70052;SDS011;57398;52.032;4.376;2022-08-01T11:12:03;4.57;;;1.70;;
70052;SDS011;57398;52.032;4.376;2022-08-01T11:14:31;6.20;;;1.80;;
70052;SDS011;57398;52.032;4.376;2022-08-01T11:17:32;7.63;;;2.00;;
70052;SDS011;57398;52.032;4.376;2022-08-01T11:20:04;7.40;;;2.00;;
70052;SDS011;57398;52.032;4.376;2022-08-01T11:22:40;9.20;;;2.20;;
70052;SDS011;57398;52.032;4.376;2022-08-01T11:28:35;6.00;;;1.90;;
70052;SDS011;57398;52.032;4.376;2022-08-01T11:31:25;7.70;;;2.30;;
70052;SDS011;57398;52.032;4.376;2022-08-01T11:33:53;5.43;;;2.00;;
70052;SDS011;57398;52.032;4.376;2022-08-01T11:36:25;8.23;;;2.28;;
70052;SDS011;57398;52.032;4.376;2022-08-01T11:39:14;7.82;;;2.00;;
70052;SDS011;57398;52.032;4.376;2022-08-01T11:41:44;7.40;;;2.10;;
70052;SDS011;57398;52.032;4.376;2022-08-01T11:44:13;6.15;;;1.85;;
70052;SDS011;57398;52.032;4.376;2022-08-01T11:46:47;6.17;;;1.60;;
70052;SDS011;57398;52.032;4.376;2022-08-01T11:49:29;8.05;;;1.90;;
70052;SDS011;57398;52.032;4.376;2022-08-01T11:51:59;7.03;;;2.00;;
70052;SDS011;57398;52.032;4.376;2022-08-01T11:54:30;9.40;;;2.30;;
70052;SDS011;57398;52.032;4.376;2022-08-01T11:57:03;5.82;;;1.95;;
70052;SDS011;57398;52.032;4.376;2022-08-01T11:59:35;6.33;;;1.93;;
70052;SDS011;57398;52.032;4.376;2022-08-01T12:02:17;6.50;;;2.03;;
70052;SDS011;57398;52.032;4.376;2022-08-01T12:04:56;7.22;;;1.95;;
70052;SDS011;57398;52.032;4.376;2022-08-01T12:07:26;6.97;;;1.80;;
70052;SDS011;57398;52.032;4.376;2022-08-01T12:10:01;5.40;;;1.80;;
70052;SDS011;57398;52.032;4.376;2022-08-01T12:12:30;6.63;;;2.10;;
70052;SDS011;57398;52.032;4.376;2022-08-01T12:14:59;8.70;;;2.30;;
70052;SDS011;57398;52.032;4.376;2022-08-01T12:17:27;6.57;;;2.33;;
70052;SDS011;57398;52.032;4.376;2022-08-01T12:19:55;5.03;;;2.13;;
70052;SDS011;57398;52.032;4.376;2022-08-01T12:22:23;8.18;;;2.10;;
70052;SDS011;57398;52.032;4.376;2022-08-01T12:24:51;6.27;;;2.10;;
70052;SDS011;57398;52.032;4.376;2022-08-01T12:27:28;7.43;;;2.20;;
70052;SDS011;57398;52.032;4.376;2022-08-01T12:29:59;8.85;;;2.50;;
70052;SDS011;57398;52.032;4.376;2022-08-01T12:32:28;7.63;;;2.40;;
70052;SDS011;57398;52.032;4.376;2022-08-01T12:35:02;7.00;;;2.20;;
70052;SDS011;57398;52.032;4.376;2022-08-01T12:37:29;6.43;;;2.07;;
70052;SDS011;57398;52.032;4.376;2022-08-01T12:39:57;7.13;;;2.10;;
70052;SDS011;57398;52.032;4.376;2022-08-01T12:42:26;6.85;;;2.17;;
70052;SDS011;57398;52.032;4.376;2022-08-01T12:44:53;9.50;;;2.00;;
70052;SDS011;57398;52.032;4.376;2022-08-01T12:47:23;6.03;;;2.03;;
70052;SDS011;57398;52.032;4.376;2022-08-01T12:49:51;7.43;;;2.10;;
70052;SDS011;57398;52.032;4.376;2022-08-01T12:52:18;6.28;;;1.92;;
70052;SDS011;57398;52.032;4.376;2022-08-01T12:57:45;8.32;;;2.47;;
70052;SDS011;57398;52.032;4.376;2022-08-01T13:00:17;7.80;;;2.10;;
70052;SDS011;57398;52.032;4.376;2022-08-01T13:02:46;8.27;;;2.20;;
70052;SDS011;57398;52.032;4.376;2022-08-01T13:05:15;8.25;;;2.22;;
70052;SDS011;57398;52.032;4.376;2022-08-01T13:07:44;6.20;;;2.00;;
70052;SDS011;57398;52.032;4.376;2022-08-01T13:10:13;9.75;;;2.42;;
70052;SDS011;57398;52.032;4.376;2022-08-01T13:12:50;6.07;;;2.30;;
70052;SDS011;57398;52.032;4.376;2022-08-01T13:15:19;6.87;;;2.00;;
70052;SDS011;57398;52.032;4.376;2022-08-01T13:17:48;7.60;;;2.20;;
70052;SDS011;57398;52.032;4.376;2022-08-01T13:20:22;5.50;;;2.10;;
70052;SDS011;57398;52.032;4.376;2022-08-01T13:22:50;6.78;;;2.20;;
70052;SDS011;57398;52.032;4.376;2022-08-01T13:25:18;5.78;;;2.20;;
70052;SDS011;57398;52.032;4.376;2022-08-01T13:27:49;6.57;;;2.20;;
70052;SDS011;57398;52.032;4.376;2022-08-01T13:30:19;6.18;;;2.08;;
70052;SDS011;57398;52.032;4.376;2022-08-01T13:32:57;5.75;;;1.90;;
70052;SDS011;57398;52.032;4.376;2022-08-01T13:35:26;6.30;;;2.20;;
70052;SDS011;57398;52.032;4.376;2022-08-01T13:37:55;6.80;;;2.03;;
70052;SDS011;57398;52.032;4.376;2022-08-01T13:40:23;5.00;;;1.80;;
70052;SDS011;57398;52.032;4.376;2022-08-01T13:42:50;6.95;;;2.17;;
70052;SDS011;57398;52.032;4.376;2022-08-01T13:45:18;5.22;;;1.55;;
70052;SDS011;57398;52.032;4.376;2022-08-01T13:47:47;5.55;;;1.40;;
70052;SDS011;57398;52.032;4.376;2022-08-01T13:50:37;4.15;;;1.80;;
70052;SDS011;57398;52.032;4.376;2022-08-01T13:53:05;4.83;;;1.80;;
70052;SDS011;57398;52.032;4.376;2022-08-01T13:55:32;5.68;;;1.60;;
70052;SDS011;57398;52.032;4.376;2022-08-01T13:58:00;6.00;;;1.70;;
70052;SDS011;57398;52.032;4.376;2022-08-01T14:00:29;6.05;;;1.73;;
70052;SDS011;57398;52.032;4.376;2022-08-01T14:02:56;4.72;;;1.52;;
70052;SDS011;57398;52.032;4.376;2022-08-01T14:05:23;6.97;;;1.60;;
70052;SDS011;57398;52.032;4.376;2022-08-01T14:07:52;4.72;;;1.63;;
70052;SDS011;57398;52.032;4.376;2022-08-01T14:10:22;4.35;;;1.60;;
70052;SDS011;57398;52.032;4.376;2022-08-01T14:12:51;5.95;;;1.90;;
70052;SDS011;57398;52.032;4.376;2022-08-01T14:15:22;5.47;;;1.88;;
70052;SDS011;57398;52.032;4.376;2022-08-01T14:18:05;5.63;;;1.77;;
70052;SDS011;57398;52.032;4.376;2022-08-01T14:20:34;5.13;;;1.48;;
70052;SDS011;57398;52.032;4.376;2022-08-01T14:23:04;5.32;;;1.60;;
70052;SDS011;57398;52.032;4.376;2022-08-01T14:25:34;4.13;;;1.60;;
70052;SDS011;57398;52.032;4.376;2022-08-01T14:28:22;5.03;;;1.60;;
70052;SDS011;57398;52.032;4.376;2022-08-01T14:30:50;5.73;;;1.60;;
70052;SDS011;57398;52.032;4.376;2022-08-01T14:33:17;5.43;;;1.60;;
70052;SDS011;57398;52.032;4.376;2022-08-01T14:35:45;5.40;;;1.63;;
70052;SDS011;57398;52.032;4.376;2022-08-01T14:38:34;5.80;;;1.70;;
70052;SDS011;57398;52.032;4.376;2022-08-01T14:41:01;5.70;;;1.60;;
70052;SDS011;57398;52.032;4.376;2022-08-01T14:43:30;5.93;;;1.70;;
70052;SDS011;57398;52.032;4.376;2022-08-01T14:45:59;5.40;;;1.60;;
70052;SDS011;57398;52.032;4.376;2022-08-01T14:48:26;4.43;;;1.80;;
70052;SDS011;57398;52.032;4.376;2022-08-01T14:50:55;5.00;;;1.60;;
70052;SDS011;57398;52.032;4.376;2022-08-01T14:53:23;8.13;;;1.42;;
70052;SDS011;57398;52.032;4.376;2022-08-01T14:55:52;4.63;;;1.50;;
70052;SDS011;57398;52.032;4.376;2022-08-01T14:58:19;6.07;;;1.60;;
70052;SDS011;57398;52.032;4.376;2022-08-01T15:00:47;5.30;;;1.95;;
70052;SDS011;57398;52.032;4.376;2022-08-01T15:03:14;6.15;;;1.60;;
70052;SDS011;57398;52.032;4.376;2022-08-01T15:05:42;5.25;;;1.50;;
70052;SDS011;57398;52.032;4.376;2022-08-01T15:08:09;4.13;;;1.50;;
70052;SDS011;57398;52.032;4.376;2022-08-01T15:10:37;5.05;;;1.42;;